Time;durP1;ratioP1;P1;durP2;ratioP2;P2;SDS_P1;SDS_P2;PMS_P1;PMS_P2;Temp;Humidity;BMP_temperature;BMP_pressure;BME280_temperature;BME280_humidity;BME280_pressure;Samples;Min_cycle;Max_cycle;Signal;HPM_P1;HPM_P2
2022/01/22 00:00:09;;;;;;;24.60;14.67;;;;;;;2.65;100.00;102473.56;836022;23;737;-51
2022/01/22 00:00:32;;;;;;;24.33;14.43;;;;;;;2.64;100.00;102479.53;836935;23;785;-54
2022/01/22 00:00:52;;;;;;;25.40;14.80;;;;;;;2.64;100.00;102479.53;832210;23;1905;-50
2022/01/22 00:01:13;;;;;;;25.90;14.98;;;;;;;2.69;100.00;102475.53;831887;23;4278;-53
2022/01/22 00:01:33;;;;;;;24.37;14.53;;;;;;;2.69;100.00;102482.38;832041;23;951;-50
2022/01/22 00:01:53;;;;;;;27.17;14.27;;;;;;;2.68;100.00;102480.59;833274;23;679;-54
2022/01/22 00:02:14;;;;;;;24.17;14.20;;;;;;;2.68;100.00;102475.44;833935;23;919;-55
2022/01/22 00:02:34;;;;;;;23.63;13.63;;;;;;;2.92;100.00;102469.88;832943;23;804;-53
2022/01/22 00:02:55;;;;;;;22.47;13.83;;;;;;;2.92;100.00;102475.91;837641;23;832;-54
2022/01/22 00:03:15;;;;;;;22.38;14.05;;;;;;;2.87;100.00;102477.38;837275;23;915;-50
2022/01/22 00:03:37;;;;;;;22.93;14.27;;;;;;;2.83;100.00;102475.41;836013;23;1210;-64
2022/01/22 00:03:58;;;;;;;23.40;14.15;;;;;;;2.81;100.00;102479.59;834067;23;915;-52
2022/01/22 00:04:18;;;;;;;22.10;14.93;;;;;;;2.91;100.00;102474.16;832222;23;4423;-52
2022/01/22 00:04:39;;;;;;;23.08;14.65;;;;;;;2.92;100.00;102470.75;830227;23;888;-53
2022/01/22 00:04:59;;;;;;;25.47;14.20;;;;;;;2.90;100.00;102474.94;832860;23;746;-52
2022/01/22 00:05:21;;;;;;;23.40;14.20;;;;;;;2.87;100.00;102470.50;832657;23;776;-54
2022/01/22 00:05:41;;;;;;;22.60;13.95;;;;;;;2.83;100.00;102473.72;833242;23;750;-53
2022/01/22 00:06:02;;;;;;;22.92;13.77;;;;;;;2.84;100.00;102477.19;836581;23;840;-51
2022/01/22 00:06:22;;;;;;;23.42;14.18;;;;;;;2.84;100.00;102474.63;836443;23;801;-51
2022/01/22 00:06:43;;;;;;;22.43;13.60;;;;;;;2.89;100.00;102468.91;836040;23;884;-55
2022/01/22 00:07:06;;;;;;;24.73;13.85;;;;;;;2.91;100.00;102468.97;834829;23;4630;-52
2022/01/22 00:07:26;;;;;;;26.10;13.98;;;;;;;2.86;100.00;102476.47;834708;23;860;-53
2022/01/22 00:07:47;;;;;;;25.70;14.67;;;;;;;2.83;100.00;102471.13;836834;23;919;-52
2022/01/22 00:08:08;;;;;;;21.42;14.60;;;;;;;2.80;100.00;102475.25;837034;23;594;-53
2022/01/22 00:08:28;;;;;;;23.87;14.43;;;;;;;2.81;100.00;102475.34;831154;23;722;-54
2022/01/22 00:08:49;;;;;;;24.80;14.02;;;;;;;2.83;100.00;102470.25;837559;23;920;-51
2022/01/22 00:09:10;;;;;;;26.73;13.90;;;;;;;2.82;100.00;102471.91;836053;23;710;-53
2022/01/22 00:09:38;;;;;;;23.58;14.00;;;;;;;2.81;100.00;102471.84;838300;23;994;-53
2022/01/22 00:10:00;;;;;;;28.45;14.13;;;;;;;2.81;100.00;102474.41;835267;23;805;-53
2022/01/22 00:10:23;;;;;;;23.38;13.80;;;;;;;2.79;100.00;102466.59;834621;23;4460;-53
2022/01/22 00:10:44;;;;;;;22.45;13.82;;;;;;;2.78;100.00;102474.25;834158;23;1074;-53
2022/01/22 00:11:05;;;;;;;23.63;13.98;;;;;;;2.85;100.00;102466.03;832630;23;990;-52
2022/01/22 00:11:33;;;;;;;24.00;14.57;;;;;;;2.86;100.00;102467.81;833086;23;900;-51
2022/01/22 00:11:54;;;;;;;24.70;13.90;;;;;;;2.87;100.00;102467.03;832922;23;1027;-51
2022/01/22 00:12:27;;;;;;;23.83;14.45;;;;;;;2.88;100.00;102466.22;835834;23;995;-56
2022/01/22 00:14:23;;;;;;;23.25;14.25;;;;;;;2.79;100.00;102468.28;836807;23;935;-50
2022/01/22 00:14:44;;;;;;;26.98;14.80;;;;;;;2.72;100.00;102465.34;831292;23;959;-50
2022/01/22 00:15:06;;;;;;;23.50;15.37;;;;;;;2.68;100.00;102465.97;832104;23;952;-54
2022/01/22 00:15:29;;;;;;;24.63;14.93;;;;;;;2.67;100.00;102466.81;833403;23;907;-50
2022/01/22 00:15:49;;;;;;;24.73;14.63;;;;;;;2.68;100.00;102467.69;834053;23;936;-54
2022/01/22 00:16:10;;;;;;;25.27;15.13;;;;;;;2.68;100.00;102476.31;832818;23;1016;-51
2022/01/22 00:16:30;;;;;;;24.98;15.35;;;;;;;2.69;100.00;102475.53;833312;23;4283;-51
2022/01/22 00:16:54;;;;;;;26.93;14.50;;;;;;;2.72;100.00;102473.09;835933;23;916;-51
2022/01/22 00:17:14;;;;;;;25.05;14.90;;;;;;;2.70;100.00;102479.88;837720;23;928;-51
2022/01/22 00:17:35;;;;;;;23.07;15.10;;;;;;;2.68;100.00;102475.44;833589;23;892;-51
2022/01/22 00:17:57;;;;;;;25.05;14.88;;;;;;;2.77;100.00;102473.38;832055;23;824;-55
2022/01/22 00:18:17;;;;;;;26.17;15.60;;;;;;;2.76;100.00;102470.72;833718;23;884;-51
2022/01/22 00:18:39;;;;;;;23.33;15.18;;;;;;;2.80;100.00;102475.25;831648;23;947;-52
2022/01/22 00:19:00;;;;;;;24.15;15.38;;;;;;;2.80;100.00;102476.13;832892;23;1109;-54
2022/01/22 00:19:20;;;;;;;25.53;15.60;;;;;;;2.78;100.00;102469.09;833205;23;836;-55
2022/01/22 00:19:41;;;;;;;25.02;14.93;;;;;;;2.77;100.00;102473.38;835429;23;4251;-50
2022/01/22 00:20:03;;;;;;;26.33;15.60;;;;;;;2.73;100.00;102474.88;836436;23;914;-53
2022/01/22 00:20:25;;;;;;;25.17;15.65;;;;;;;2.71;100.00;102475.59;837439;23;777;-51
2022/01/22 00:20:46;;;;;;;25.40;15.45;;;;;;;2.69;100.00;102474.63;836836;23;1971;-51
2022/01/22 00:21:07;;;;;;;24.70;15.07;;;;;;;2.67;100.00;102471.97;837040;23;889;-51
2022/01/22 00:21:27;;;;;;;24.60;14.93;;;;;;;2.79;100.00;102473.47;836803;23;951;-51
2022/01/22 00:21:49;;;;;;;25.33;14.97;;;;;;;2.75;100.00;102476.69;836897;23;745;-51
2022/01/22 00:22:09;;;;;;;24.38;15.45;;;;;;;2.71;100.00;102468.75;838068;23;954;-51
2022/01/22 00:22:33;;;;;;;26.10;15.10;;;;;;;2.70;100.00;102474.72;835952;23;4346;-51
2022/01/22 00:22:53;;;;;;;25.48;15.32;;;;;;;2.70;100.00;102479.88;837597;23;943;-52
2022/01/22 00:23:19;;;;;;;23.35;15.00;;;;;;;2.70;100.00;102472.13;832724;23;796;-55
2022/01/22 00:23:45;;;;;;;24.27;14.90;;;;;;;2.68;100.00;102481.47;832369;23;933;-55
2022/01/22 00:24:09;;;;;;;25.15;15.27;;;;;;;2.65;100.00;102465.81;827945;23;1016;-52
2022/01/22 00:24:37;;;;;;;24.25;14.85;;;;;;;2.66;100.00;102464.09;827766;23;975;-54
2022/01/22 00:24:59;;;;;;;26.10;15.55;;;;;;;2.65;100.00;102470.09;829243;23;986;-52
2022/01/22 00:25:21;;;;;;;25.30;15.10;;;;;;;2.62;100.00;102475.97;834543;23;961;-54
2022/01/22 00:25:42;;;;;;;26.98;15.23;;;;;;;2.62;100.00;102473.41;831044;23;4194;-54
2022/01/22 00:26:03;;;;;;;27.13;15.80;;;;;;;2.60;100.00;102474.09;837005;23;800;-51
2022/01/22 00:26:23;;;;;;;25.97;15.93;;;;;;;2.60;100.00;102471.53;836462;23;894;-53
2022/01/22 00:26:44;;;;;;;27.73;16.30;;;;;;;2.58;100.00;102467.97;830866;23;929;-52
2022/01/22 00:27:06;;;;;;;28.90;16.35;;;;;;;2.55;100.00;102467.00;832623;23;1213;-52
2022/01/22 00:27:27;;;;;;;24.20;15.95;;;;;;;2.56;100.00;102465.28;826913;23;1213;-52
2022/01/22 00:27:49;;;;;;;27.23;16.13;;;;;;;2.55;100.00;102468.69;826431;23;821;-51
2022/01/22 00:28:10;;;;;;;26.50;16.52;;;;;;;2.56;100.00;102475.59;828272;23;801;-52
2022/01/22 00:28:30;;;;;;;24.63;15.93;;;;;;;2.57;100.00;102472.25;828282;23;4277;-56
2022/01/22 00:28:50;;;;;;;27.10;16.37;;;;;;;2.55;100.00;102472.16;832931;23;888;-52
2022/01/22 00:29:12;;;;;;;27.40;16.60;;;;;;;2.57;100.00;102479.09;831640;23;846;-54
2022/01/22 00:29:33;;;;;;;25.50;16.25;;;;;;;2.56;100.00;102478.19;830579;23;1566;-53
2022/01/22 00:29:54;;;;;;;28.30;16.37;;;;;;;2.57;100.00;102474.81;825824;23;993;-51
2022/01/22 00:30:20;;;;;;;26.52;15.88;;;;;;;2.55;100.00;102473.84;835251;23;903;-54
2022/01/22 00:30:41;;;;;;;27.65;16.95;;;;;;;2.54;100.00;102472.94;835877;23;1209;-51
2022/01/22 00:31:01;;;;;;;29.50;17.42;;;;;;;2.54;100.00;102466.91;829577;23;872;-53
2022/01/22 00:31:22;;;;;;;27.70;17.10;;;;;;;2.54;100.00;102472.94;834836;23;713;-51
2022/01/22 00:31:42;;;;;;;26.98;15.93;;;;;;;2.65;100.00;102473.56;835292;23;4362;-52
2022/01/22 00:32:03;;;;;;;27.07;15.97;;;;;;;2.66;100.00;102475.34;833084;23;836;-55
2022/01/22 00:32:23;;;;;;;26.58;15.93;;;;;;;2.66;100.00;102483.09;835831;23;871;-51
2022/01/22 00:32:44;;;;;;;26.15;15.98;;;;;;;2.66;100.00;102474.44;838398;23;939;-51
2022/01/22 00:33:05;;;;;;;25.90;15.90;;;;;;;2.66;100.00;102474.44;838995;23;1251;-53
2022/01/22 00:33:25;;;;;;;24.13;15.63;;;;;;;2.63;100.00;102472.59;841601;23;879;-50
2022/01/22 00:33:45;;;;;;;26.13;16.13;;;;;;;2.66;100.00;102469.28;840191;23;722;-52
2022/01/22 00:34:07;;;;;;;27.67;16.48;;;;;;;2.65;100.00;102476.16;840292;23;929;-51
2022/01/22 00:34:27;;;;;;;26.98;16.50;;;;;;;2.68;100.00;102476.31;835180;23;4220;-51
2022/01/22 00:34:48;;;;;;;26.40;16.30;;;;;;;2.75;100.00;102479.25;831856;23;832;-51
2022/01/22 00:35:08;;;;;;;24.33;15.80;;;;;;;2.75;100.00;102477.56;833449;23;671;-54
2022/01/22 00:35:29;;;;;;;26.73;15.63;;;;;;;2.73;100.00;102468.84;827909;23;1296;-50
2022/01/22 00:35:50;;;;;;;26.30;15.63;;;;;;;2.72;100.00;102472.22;828863;23;1125;-55
2022/01/22 00:36:10;;;;;;;22.25;15.50;;;;;;;2.71;100.00;102475.59;827824;23;927;-54
2022/01/22 00:36:30;;;;;;;24.47;15.53;;;;;;;2.71;100.00;102473.94;829715;23;856;-52
2022/01/22 00:36:51;;;;;;;26.67;15.47;;;;;;;2.71;100.00;102476.50;832968;23;860;-51
2022/01/22 00:37:11;;;;;;;25.27;15.70;;;;;;;2.70;100.00;102477.31;831725;23;867;-53
2022/01/22 00:37:33;;;;;;;27.10;16.15;;;;;;;2.66;100.00;102467.59;834494;23;4232;-52
2022/01/22 00:37:54;;;;;;;26.17;16.02;;;;;;;2.65;100.00;102480.44;837844;23;962;-51
2022/01/22 00:38:15;;;;;;;28.88;16.25;;;;;;;2.64;100.00;102476.94;831440;23;1128;-54
2022/01/22 00:38:35;;;;;;;26.23;16.38;;;;;;;2.65;100.00;102470.97;830836;23;876;-53
2022/01/22 00:38:56;;;;;;;25.80;15.82;;;;;;;2.63;100.00;102472.59;831029;23;1192;-52
2022/01/22 00:39:16;;;;;;;24.77;15.77;;;;;;;2.62;100.00;102475.97;832587;23;954;-51
2022/01/22 00:39:37;;;;;;;25.87;15.80;;;;;;;2.60;100.00;102477.56;831604;23;836;-52
2022/01/22 00:39:57;;;;;;;26.40;16.38;;;;;;;2.61;100.00;102474.19;828338;23;1300;-53
2022/01/22 00:40:21;;;;;;;26.23;15.63;;;;;;;2.64;100.00;102476.94;833779;23;875;-55
2022/01/22 00:40:49;;;;;;;23.25;15.50;;;;;;;2.62;100.00;102468.22;830749;23;4302;-52
2022/01/22 00:41:10;;;;;;;27.23;15.77;;;;;;;2.73;100.00;102459.38;827798;23;908;-50
2022/01/22 00:41:31;;;;;;;27.05;15.43;;;;;;;2.75;100.00;102466.34;825402;23;923;-51
2022/01/22 00:41:52;;;;;;;24.76;15.78;;;;;;;2.74;100.00;102460.25;830305;23;801;-53
2022/01/22 00:42:14;;;;;;;27.37;16.50;;;;;;;2.71;100.00;102465.28;834822;23;1228;-53
2022/01/22 00:42:34;;;;;;;26.77;15.45;;;;;;;2.68;100.00;102463.41;835676;23;820;-54
2022/01/22 00:42:55;;;;;;;27.67;16.02;;;;;;;2.66;100.00;102462.44;837142;23;958;-53
2022/01/22 00:43:15;;;;;;;28.07;15.70;;;;;;;2.70;100.00;102460.91;840168;23;1298;-51
2022/01/22 00:43:36;;;;;;;25.95;15.65;;;;;;;2.69;100.00;102459.16;838317;23;4276;-55
2022/01/22 00:43:56;;;;;;;24.83;15.80;;;;;;;2.69;100.00;102464.31;834931;23;1640;-51
2022/01/22 00:44:16;;;;;;;27.80;16.05;;;;;;;2.71;100.00;102465.28;832011;23;814;-55
2022/01/22 00:44:37;;;;;;;25.40;16.23;;;;;;;2.73;100.00;102466.25;832280;23;872;-51
2022/01/22 00:44:57;;;;;;;26.33;15.75;;;;;;;2.75;100.00;102458.59;832902;23;804;-52
2022/01/22 00:45:18;;;;;;;24.03;15.80;;;;;;;2.72;100.00;102465.34;831735;23;1231;-52
2022/01/22 00:45:39;;;;;;;23.52;15.50;;;;;;;2.71;100.00;102455.84;836788;23;986;-54
2022/01/22 00:45:59;;;;;;;24.75;15.48;;;;;;;2.68;100.00;102468.56;840847;23;919;-53
2022/01/22 00:46:21;;;;;;;28.30;16.27;;;;;;;2.67;100.00;102466.81;841392;23;899;-55
2022/01/22 00:46:41;;;;;;;27.90;16.27;;;;;;;2.70;100.00;102466.97;838487;23;4235;-55
2022/01/22 00:47:02;;;;;;;23.50;15.93;;;;;;;2.67;100.00;102465.91;835568;23;1291;-54
2022/01/22 00:47:23;;;;;;;24.33;16.23;;;;;;;2.65;100.00;102459.78;831929;23;1499;-55
2022/01/22 00:47:43;;;;;;;27.10;16.13;;;;;;;2.67;100.00;102463.31;832449;23;741;-53
2022/01/22 00:48:04;;;;;;;26.48;15.85;;;;;;;2.66;100.00;102467.59;823995;23;1239;-53
2022/01/22 00:48:24;;;;;;;24.67;15.73;;;;;;;2.66;100.00;102469.28;824835;23;928;-54
2022/01/22 00:48:45;;;;;;;23.87;16.13;;;;;;;2.77;100.00;102468.22;828069;23;1211;-53
2022/01/22 00:49:06;;;;;;;25.77;16.23;;;;;;;2.72;100.00;102465.34;828450;23;1831;-52
2022/01/22 00:49:27;;;;;;;25.42;15.73;;;;;;;2.71;100.00;102466.19;831770;23;4375;-51
2022/01/22 00:49:47;;;;;;;23.45;15.73;;;;;;;2.71;100.00;102465.28;831341;23;1008;-53
2022/01/22 00:50:12;;;;;;;21.93;16.17;;;;;;;2.70;100.00;102474.72;836947;23;1208;-55
2022/01/22 00:50:32;;;;;;;24.50;15.52;;;;;;;2.70;100.00;102469.56;834903;23;1706;-52
2022/01/22 00:50:55;;;;;;;29.73;15.77;;;;;;;2.69;100.00;102470.34;828472;23;1221;-55
2022/01/22 00:51:16;;;;;;;25.52;15.75;;;;;;;2.69;100.00;102467.78;826462;23;2420;-51
2022/01/22 00:51:36;;;;;;;25.77;15.30;;;;;;;2.86;100.00;102460.06;829205;23;833;-54
2022/01/22 00:51:57;;;;;;;24.77;15.32;;;;;;;2.87;100.00;102462.75;829211;23;781;-54
2022/01/22 00:52:18;;;;;;;24.73;15.40;;;;;;;2.84;100.00;102464.28;829276;23;703;-52
2022/01/22 00:52:40;;;;;;;23.73;15.63;;;;;;;2.81;100.00;102477.91;827752;23;4360;-53
2022/01/22 00:53:02;;;;;;;26.77;15.60;;;;;;;2.78;100.00;102469.09;833659;23;1239;-55
2022/01/22 00:53:26;;;;;;;24.40;15.70;;;;;;;2.80;100.00;102472.66;831158;23;1298;-51
2022/01/22 00:53:46;;;;;;;27.30;16.50;;;;;;;2.81;100.00;102470.16;829371;23;1312;-51
2022/01/22 00:54:07;;;;;;;25.90;15.80;;;;;;;2.77;100.00;102469.88;831730;23;1228;-52
2022/01/22 00:54:27;;;;;;;22.87;15.63;;;;;;;2.75;100.00;102466.34;830595;23;1193;-53
2022/01/22 00:54:47;;;;;;;23.88;15.40;;;;;;;2.74;100.00;102470.59;833442;23;942;-55
2022/01/22 00:55:09;;;;;;;23.70;15.40;;;;;;;2.73;100.00;102474.88;833362;23;898;-54
2022/01/22 00:55:29;;;;;;;22.80;15.45;;;;;;;2.74;100.00;102470.59;832598;23;4447;-55
2022/01/22 00:55:50;;;;;;;23.80;15.35;;;;;;;2.73;100.00;102472.31;835356;23;932;-50
2022/01/22 00:56:11;;;;;;;23.13;15.27;;;;;;;2.78;100.00;102474.25;835762;23;1156;-53
2022/01/22 00:56:31;;;;;;;22.45;15.10;;;;;;;2.76;100.00;102473.28;835479;23;1219;-52
2022/01/22 00:56:52;;;;;;;25.33;15.37;;;;;;;2.75;100.00;102471.50;841030;23;745;-51
2022/01/22 00:57:12;;;;;;;27.17;16.17;;;;;;;2.72;100.00;102474.81;835840;23;1181;-52
2022/01/22 00:57:33;;;;;;;26.48;16.60;;;;;;;2.69;100.00;102472.94;836247;23;749;-61
2022/01/22 00:57:53;;;;;;;25.10;15.97;;;;;;;2.72;100.00;102482.56;837339;23;800;-51
2022/01/22 00:58:13;;;;;;;24.43;16.50;;;;;;;2.74;100.00;102478.34;832313;23;967;-49
2022/01/22 00:58:34;;;;;;;25.13;16.00;;;;;;;2.75;100.00;102481.84;827897;23;4424;-52
2022/01/22 00:58:54;;;;;;;26.70;15.77;;;;;;;2.76;100.00;102475.88;828474;23;801;-55
2022/01/22 00:59:15;;;;;;;25.75;15.40;;;;;;;2.73;100.00;102479.19;833034;23;730;-52
2022/01/22 00:59:35;;;;;;;25.63;16.10;;;;;;;2.79;100.00;102478.63;833058;23;928;-51
2022/01/22 00:59:57;;;;;;;25.60;15.97;;;;;;;2.77;100.00;102481.13;828580;23;1367;-52
2022/01/22 01:00:18;;;;;;;26.15;15.30;;;;;;;2.85;100.00;102476.38;824809;23;1070;-53
2022/01/22 01:00:38;;;;;;;27.33;15.50;;;;;;;2.81;100.00;102475.34;829435;23;912;-52
2022/01/22 01:00:59;;;;;;;26.20;16.00;;;;;;;2.80;100.00;102480.41;827028;23;1901;-50
2022/01/22 01:01:19;;;;;;;23.70;15.93;;;;;;;2.79;100.00;102478.63;829777;23;789;-51
2022/01/22 01:01:41;;;;;;;24.38;15.75;;;;;;;2.88;100.00;102485.19;827509;23;4292;-51
2022/01/22 01:02:03;;;;;;;25.67;15.80;;;;;;;2.88;100.00;102480.03;828910;23;1166;-52
2022/01/22 01:02:23;;;;;;;26.27;15.65;;;;;;;2.83;100.00;102486.63;832762;23;919;-51
2022/01/22 01:02:45;;;;;;;29.17;15.98;;;;;;;2.80;100.00;102478.72;834501;23;801;-51
2022/01/22 01:03:06;;;;;;;25.70;15.20;;;;;;;2.79;100.00;102483.78;830367;23;1215;-52
2022/01/22 01:03:31;;;;;;;25.27;15.55;;;;;;;2.84;100.00;102478.06;830924;23;1196;-53
2022/01/22 01:03:51;;;;;;;25.40;15.70;;;;;;;2.89;100.00;102475.75;835664;23;749;-51
2022/01/22 01:04:12;;;;;;;27.47;15.60;;;;;;;2.91;100.00;102481.91;837437;23;809;-52
2022/01/22 01:04:35;;;;;;;25.98;15.60;;;;;;;2.89;100.00;102475.75;834214;23;5341;-52
2022/01/22 01:04:55;;;;;;;23.60;15.73;;;;;;;2.85;100.00;102473.78;834447;23;1250;-52
2022/01/22 01:05:16;;;;;;;24.50;16.00;;;;;;;2.84;100.00;102477.19;831097;23;1267;-53
2022/01/22 01:05:37;;;;;;;27.13;15.95;;;;;;;2.80;100.00;102480.41;828145;23;1363;-51
2022/01/22 01:05:57;;;;;;;29.67;16.40;;;;;;;2.77;100.00;102475.97;829816;23;750;-53
2022/01/22 01:06:18;;;;;;;25.50;16.13;;;;;;;2.75;100.00;102479.25;822936;23;1373;-52
2022/01/22 01:06:39;;;;;;;25.55;16.08;;;;;;;2.72;100.00;102472.22;821011;23;1197;-52
2022/01/22 01:07:00;;;;;;;24.98;15.70;;;;;;;2.74;100.00;102473.19;821702;23;880;-55
2022/01/22 01:07:20;;;;;;;24.33;15.90;;;;;;;2.78;100.00;102471.69;823160;23;807;-54
2022/01/22 01:07:41;;;;;;;26.40;16.20;;;;;;;2.76;100.00;102470.72;827037;23;5350;-57
2022/01/22 01:08:04;;;;;;;24.75;16.00;;;;;;;2.78;100.00;102466.50;822857;23;1327;-55
2022/01/22 01:08:24;;;;;;;24.33;16.02;;;;;;;2.77;100.00;102472.47;824268;23;1092;-51
2022/01/22 01:08:45;;;;;;;26.02;16.63;;;;;;;2.75;100.00;102472.38;823725;23;1194;-53
2022/01/22 01:09:08;;;;;;;26.38;16.50;;;;;;;2.71;100.00;102468.75;824745;23;1305;-51
2022/01/22 01:09:29;;;;;;;25.33;16.45;;;;;;;2.72;100.00;102472.22;826076;23;1525;-52
2022/01/22 01:09:49;;;;;;;28.73;17.10;;;;;;;2.69;100.00;102472.94;828499;23;1541;-51
2022/01/22 01:10:14;;;;;;;27.83;17.23;;;;;;;2.68;100.00;102472.84;827393;23;1285;-54
2022/01/22 01:10:35;;;;;;;25.85;17.05;;;;;;;2.67;100.00;102466.81;830871;23;4469;-53
2022/01/22 01:10:56;;;;;;;25.75;17.30;;;;;;;2.72;100.00;102472.22;826944;23;1470;-52
2022/01/22 01:11:17;;;;;;;26.47;16.77;;;;;;;2.73;100.00;102474.88;823858;23;1145;-50
2022/01/22 01:11:45;;;;;;;28.45;18.05;;;;;;;2.78;100.00;102471.69;827029;23;1400;-55
2022/01/22 01:12:09;;;;;;;24.95;16.90;;;;;;;2.76;100.00;102468.13;822229;23;1399;-54
2022/01/22 01:12:30;;;;;;;30.15;17.60;;;;;;;2.73;100.00;102469.72;827828;23;1456;-51
2022/01/22 01:12:51;;;;;;;26.05;17.20;;;;;;;2.73;100.00;102474.88;834470;23;1109;-51
2022/01/22 01:13:14;;;;;;;26.55;17.38;;;;;;;2.72;100.00;102472.22;831411;23;1261;-51
2022/01/22 01:13:41;;;;;;;27.88;17.30;;;;;;;2.69;100.00;102470.34;833112;23;4296;-52
2022/01/22 01:14:04;;;;;;;27.98;17.75;;;;;;;2.68;100.00;102472.84;832668;23;1505;-54
2022/01/22 01:14:35;;;;;;;29.90;17.27;;;;;;;2.67;100.00;102473.66;831841;23;1394;-51
2022/01/22 01:15:16;;;;;;;28.10;16.60;;;;;;;2.77;100.00;102470.78;831178;23;2014;-52
2022/01/22 01:15:56;;;;;;;27.60;17.27;;;;;;;2.97;100.00;102477.06;833907;23;1353;-51
2022/01/22 01:16:21;;;;;;;26.58;17.30;;;;;;;2.92;100.00;102473.31;831749;23;1190;-52
2022/01/22 01:16:56;;;;;;;26.83;17.88;;;;;;;2.93;100.00;102466.47;834751;23;4214;-51
2022/01/22 01:17:58;;;;;;;28.17;17.23;;;;;;;2.86;100.00;102462.66;827817;23;2355;-55
2022/01/22 01:32:28;;;;;;;31.58;19.38;;;;;;;2.80;100.00;102465.78;835382;23;1315;-55
2022/01/22 01:33:02;;;;;;;30.17;19.85;;;;;;;2.90;100.00;102462.03;836617;23;1276;-52
2022/01/22 01:33:39;;;;;;;30.45;19.45;;;;;;;2.81;100.00;102466.66;834982;23;1374;-55
2022/01/22 01:34:09;;;;;;;29.77;19.52;;;;;;;2.75;100.00;102462.06;836579;23;915;-54
2022/01/22 01:34:29;;;;;;;30.10;19.77;;;;;;;2.75;100.00;102467.22;827059;23;4318;-51
2022/01/22 01:34:51;;;;;;;29.70;19.08;;;;;;;2.71;100.00;102468.75;831286;23;1397;-52
2022/01/22 01:35:11;;;;;;;29.98;19.52;;;;;;;2.69;100.00;102461.72;829380;23;1266;-51
2022/01/22 01:35:36;;;;;;;27.90;19.35;;;;;;;2.68;100.00;102471.16;827062;23;1145;-55
2022/01/22 01:35:56;;;;;;;28.65;19.50;;;;;;;2.66;100.00;102467.59;827331;23;858;-52
2022/01/22 01:36:17;;;;;;;31.00;19.60;;;;;;;2.77;100.00;102469.88;824204;23;802;-52
2022/01/22 01:36:39;;;;;;;33.40;20.63;;;;;;;2.75;100.00;102466.34;826493;23;1428;-51
2022/01/22 01:37:00;;;;;;;30.48;20.50;;;;;;;2.72;100.00;102465.34;829340;23;1248;-52
2022/01/22 01:37:21;;;;;;;28.90;19.85;;;;;;;2.72;100.00;102465.34;833861;23;809;-52
2022/01/22 01:37:43;;;;;;;33.65;20.30;;;;;;;2.75;100.00;102471.50;832113;23;4308;-51
2022/01/22 01:38:04;;;;;;;31.58;20.80;;;;;;;2.71;100.00;102470.44;834251;23;1368;-52
2022/01/22 01:38:25;;;;;;;30.63;19.90;;;;;;;2.68;100.00;102468.56;829127;23;845;-55
2022/01/22 01:38:51;;;;;;;31.23;19.90;;;;;;;2.66;100.00;102465.03;823730;23;1211;-52
2022/01/22 01:39:17;;;;;;;32.22;20.25;;;;;;;2.70;100.00;102461.81;828658;23;816;-54
2022/01/22 01:39:39;;;;;;;35.03;20.52;;;;;;;2.69;100.00;102464.31;829183;23;1249;-56
2022/01/22 01:40:04;;;;;;;31.40;20.27;;;;;;;2.66;100.00;102467.59;830929;23;1213;-51
2022/01/22 01:40:27;;;;;;;32.78;20.85;;;;;;;2.63;100.00;102464.84;835173;23;1449;-52
2022/01/22 01:40:58;;;;;;;30.55;20.17;;;;;;;2.63;100.00;102462.28;834117;23;4764;-52
2022/01/22 01:41:37;;;;;;;31.73;20.58;;;;;;;2.62;100.00;102468.22;831618;23;1200;-55
2022/01/22 01:42:32;;;;;;;29.92;20.65;;;;;;;2.78;100.00;102469.97;827033;23;1248;-51
2022/01/22 01:43:26;;;;;;;32.20;20.30;;;;;;;2.79;100.00;102474.34;830797;23;1246;-52
2022/01/22 01:44:07;;;;;;;30.05;20.20;;;;;;;2.72;100.00;102462.78;827738;23;4960;-53
2022/01/22 01:44:49;;;;;;;32.08;20.77;;;;;;;2.69;100.00;102466.88;830909;23;1280;-55
2022/01/22 01:45:16;;;;;;;31.84;20.48;;;;;;;2.66;100.00;102471.84;834581;23;1491;-52
2022/01/22 01:45:43;;;;;;;32.33;20.52;;;;;;;2.63;100.00;102469.09;831095;23;1320;-56
2022/01/22 01:46:04;;;;;;;31.05;20.23;;;;;;;2.61;100.00;102469.03;832200;23;880;-55
2022/01/22 01:46:28;;;;;;;33.28;19.85;;;;;;;2.62;100.00;102467.34;834796;23;1256;-53
2022/01/22 01:46:56;;;;;;;33.88;21.65;;;;;;;2.67;100.00;102469.38;835118;23;4900;-55
2022/01/22 01:47:18;;;;;;;28.80;20.98;;;;;;;2.66;100.00;102472.78;831662;23;1360;-55
2022/01/22 01:47:41;;;;;;;32.05;21.02;;;;;;;2.62;100.00;102470.81;829452;23;1884;-52
2022/01/22 01:48:09;;;;;;;34.33;20.58;;;;;;;2.62;100.00;102465.66;830691;23;1212;-52
2022/01/22 01:48:37;;;;;;;33.97;21.15;;;;;;;2.65;100.00;102468.41;826817;23;1316;-50
2022/01/22 01:48:58;;;;;;;31.70;21.05;;;;;;;2.63;100.00;102472.59;824770;23;1013;-54
2022/01/22 01:49:19;;;;;;;32.83;20.70;;;;;;;2.63;100.00;102472.59;831932;23;1211;-51
2022/01/22 01:49:40;;;;;;;33.95;20.23;;;;;;;2.66;100.00;102472.78;838908;23;4417;-57
2022/01/22 01:50:12;;;;;;;30.60;20.23;;;;;;;2.65;100.00;102464.94;836028;23;1175;-56
2022/01/22 01:50:35;;;;;;;32.17;20.83;;;;;;;2.63;100.00;102472.59;831711;23;1181;-53
2022/01/22 01:50:58;;;;;;;34.95;20.85;;;;;;;2.63;100.00;102472.59;832191;23;796;-53
2022/01/22 01:51:19;;;;;;;33.65;20.83;;;;;;;2.61;100.00;102474.19;832292;23;1364;-55
2022/01/22 01:51:41;;;;;;;28.85;20.52;;;;;;;2.62;100.00;102469.94;832149;23;1966;-52
2022/01/22 01:52:04;;;;;;;31.25;20.25;;;;;;;2.60;100.00;102469.81;834106;23;1768;-50
2022/01/22 01:52:48;;;;;;;27.52;20.38;;;;;;;2.61;100.00;102465.56;835144;23;737;-51
2022/01/22 01:54:02;;;;;;;30.17;21.00;;;;;;;2.58;100.00;102470.56;831481;23;1304;-57
2022/01/22 01:54:06;;;;;;;32.30;21.00;;;;;;;2.55;100.00;102466.13;829717;23;4960;-52
2022/01/22 01:55:13;;;;;;;32.30;20.75;;;;;;;2.58;100.00;102466.28;832558;23;2358;-54
2022/01/22 01:55:48;;;;;;;30.15;20.65;;;;;;;2.61;100.00;102462.97;831026;23;4271;-51
2022/01/22 01:57:40;;;;;;;28.33;20.23;;;;;;;2.66;100.00;102467.59;831700;23;1193;-52
2022/01/22 01:58:05;;;;;;;32.20;20.00;;;;;;;2.69;100.00;102464.31;828603;23;860;-52
2022/01/22 01:58:31;;;;;;;31.80;20.20;;;;;;;2.66;100.00;102458.94;822795;23;4315;-51
2022/01/22 01:58:52;;;;;;;33.17;20.38;;;;;;;2.63;100.00;102471.69;824314;23;1348;-54
2022/01/22 01:59:15;;;;;;;30.95;20.30;;;;;;;2.73;100.00;102464.56;826346;23;1330;-51
2022/01/22 01:59:36;;;;;;;29.33;19.98;;;;;;;2.73;100.00;102468.84;827223;23;1402;-51
2022/01/22 01:59:57;;;;;;;28.90;19.77;;;;;;;2.75;100.00;102466.34;829349;23;1984;-52
2022/01/22 02:00:35;;;;;;;33.08;19.80;;;;;;;2.72;100.00;102464.47;833674;23;670;-54
2022/01/22 02:00:59;;;;;;;31.13;20.10;;;;;;;2.73;100.00;102459.38;835313;23;1947;-52
2022/01/22 02:01:20;;;;;;;32.08;20.33;;;;;;;2.70;100.00;102455.72;831091;23;1218;-55
2022/01/22 02:01:40;;;;;;;31.00;20.40;;;;;;;2.67;100.00;102459.06;829672;23;4460;-55
2022/01/22 02:02:01;;;;;;;28.67;20.33;;;;;;;2.65;100.00;102460.66;832218;23;1340;-52
2022/01/22 02:02:26;;;;;;;31.92;20.75;;;;;;;2.69;100.00;102457.44;828279;23;1308;-51
2022/01/22 02:02:48;;;;;;;30.38;20.45;;;;;;;2.68;100.00;102459.94;829160;23;1311;-53
2022/01/22 02:03:13;;;;;;;28.35;21.08;;;;;;;2.71;100.00;102458.44;827170;23;1482;-51
2022/01/22 02:03:37;;;;;;;30.35;20.95;;;;;;;2.73;100.00;102458.50;823384;23;1484;-50
2022/01/22 02:04:18;;;;;;;30.85;20.77;;;;;;;2.85;100.00;102459.19;827116;23;1076;-54
2022/01/22 02:04:38;;;;;;;28.83;20.73;;;;;;;2.81;100.00;102456.34;825887;23;4399;-50
2022/01/22 02:04:59;;;;;;;29.85;20.65;;;;;;;2.79;100.00;102464.00;828438;23;798;-51
2022/01/22 02:05:22;;;;;;;28.80;20.33;;;;;;;2.76;100.00;102458.69;832758;23;1219;-53
2022/01/22 02:05:43;;;;;;;31.02;20.80;;;;;;;2.77;100.00;102465.63;832096;23;1908;-52